createdAt,value
2022-10-06T00:00:44.895Z,12.12
2022-10-06T00:02:08.061Z,12.12
2022-10-06T00:03:11.583Z,12.11
2022-10-06T00:04:14.865Z,12.11
2022-10-06T00:05:17.930Z,12.11
2022-10-06T00:06:20.961Z,12.12
2022-10-06T00:07:23.870Z,12.12
2022-10-06T00:08:27.343Z,12.12
2022-10-06T00:09:30.769Z,12.12
2022-10-06T00:10:34.330Z,12.13
2022-10-06T00:11:37.816Z,12.14
2022-10-06T00:12:51.375Z,12.13
2022-10-06T00:13:54.552Z,12.13
2022-10-06T00:14:57.673Z,12.13
2022-10-06T00:16:01.313Z,12.13
2022-10-06T00:17:05.427Z,12.12
2022-10-06T00:18:08.477Z,12.11
2022-10-06T00:19:11.493Z,12.11
2022-10-06T00:20:14.836Z,12.10
2022-10-06T00:21:18.051Z,12.10
2022-10-06T00:22:21.023Z,12.10
2022-10-06T00:23:24.514Z,12.09
2022-10-06T00:24:27.694Z,12.08
2022-10-06T00:25:30.795Z,12.08
2022-10-06T00:26:35.120Z,12.08
2022-10-06T00:27:42.980Z,12.09
2022-10-06T00:28:49.866Z,12.10
2022-10-06T00:29:53.894Z,12.11
2022-10-06T00:30:57.167Z,12.11
2022-10-06T00:32:00.119Z,12.11
2022-10-06T00:33:04.672Z,12.11
2022-10-06T00:34:07.645Z,12.11
2022-10-06T00:35:10.713Z,12.11
2022-10-06T00:36:13.955Z,12.11
2022-10-06T00:37:17.244Z,12.10
2022-10-06T00:38:20.524Z,12.10
2022-10-06T00:39:23.523Z,12.11
2022-10-06T00:40:26.780Z,12.10
2022-10-06T00:41:30.140Z,12.11
2022-10-06T00:42:33.627Z,12.11
2022-10-06T00:43:53.354Z,12.11
2022-10-06T00:45:00.378Z,12.11
2022-10-06T00:46:03.927Z,12.12
2022-10-06T00:47:07.166Z,12.13
2022-10-06T00:48:21.873Z,12.13
2022-10-06T00:49:36.291Z,12.14
2022-10-06T00:50:40.215Z,12.13
2022-10-06T00:51:48.051Z,12.14
2022-10-06T00:52:51.147Z,12.14
2022-10-06T00:53:54.123Z,12.15
2022-10-06T00:54:59.913Z,12.16
2022-10-06T00:56:03.207Z,12.16
2022-10-06T00:57:07.464Z,12.18
2022-10-06T00:58:11.076Z,12.18
2022-10-06T00:59:16.726Z,12.18
2022-10-06T01:00:20.964Z,12.20
2022-10-06T01:01:25.319Z,12.20
2022-10-06T01:02:42.727Z,12.20
2022-10-06T01:03:53.489Z,12.22
2022-10-06T01:04:58.547Z,12.23
2022-10-06T01:06:03.450Z,12.21
2022-10-06T01:07:07.968Z,12.22
2022-10-06T01:08:12.762Z,12.24
2022-10-06T01:09:17.780Z,12.24
2022-10-06T01:10:20.959Z,12.25
2022-10-06T01:11:23.989Z,12.25
2022-10-06T01:12:30.942Z,12.25
2022-10-06T01:13:34.328Z,12.25
2022-10-06T01:14:39.374Z,12.25
2022-10-06T01:16:14.648Z,12.25
2022-10-06T01:17:30.133Z,12.24
2022-10-06T01:18:35.097Z,12.23
2022-10-06T01:20:00.225Z,12.23
2022-10-06T01:21:15.695Z,12.23
2022-10-06T01:22:35.431Z,12.23
2022-10-06T01:23:39.226Z,12.23
2022-10-06T01:24:45.385Z,12.24
2022-10-06T01:25:49.387Z,12.25
2022-10-06T01:26:53.937Z,12.27
2022-10-06T01:27:58.094Z,12.27
2022-10-06T01:29:03.603Z,12.27
2022-10-06T01:31:43.668Z,12.29
2022-10-06T01:32:47.154Z,12.29
2022-10-06T01:33:54.341Z,12.29
2022-10-06T01:34:58.075Z,12.31
2022-10-06T01:36:01.153Z,12.32
2022-10-06T01:37:05.232Z,12.33
2022-10-06T01:38:09.299Z,12.32
2022-10-06T01:39:12.403Z,12.33
2022-10-06T01:40:15.538Z,12.33
2022-10-06T01:41:19.583Z,12.33
2022-10-06T01:42:23.591Z,12.33
2022-10-06T01:43:26.661Z,12.33
2022-10-06T01:44:29.799Z,12.33
2022-10-06T01:45:33.079Z,12.34
2022-10-06T01:46:36.194Z,12.34
2022-10-06T01:47:39.441Z,12.34
2022-10-06T01:48:42.845Z,12.33
2022-10-06T01:49:46.965Z,12.33
2022-10-06T01:50:51.225Z,12.34
2022-10-06T01:51:54.297Z,12.34
2022-10-06T01:52:57.609Z,12.35
2022-10-06T01:54:00.743Z,12.34
2022-10-06T01:55:05.371Z,12.34
2022-10-06T01:56:08.946Z,12.34
2022-10-06T01:57:12.131Z,12.35
2022-10-06T01:58:16.129Z,12.36
2022-10-06T01:59:19.319Z,12.36
2022-10-06T02:00:22.517Z,12.36
2022-10-06T02:01:25.573Z,12.36
2022-10-06T02:02:31.784Z,12.36
2022-10-06T02:03:35.901Z,12.37
2022-10-06T02:04:39.232Z,12.37
2022-10-06T02:05:42.556Z,12.37
2022-10-06T02:06:46.099Z,12.37
2022-10-06T02:07:49.172Z,12.37
2022-10-06T02:08:52.616Z,12.37
2022-10-06T02:09:55.859Z,12.38
2022-10-06T02:10:58.983Z,12.38
2022-10-06T02:12:05.246Z,12.38
2022-10-06T02:13:08.241Z,12.38
2022-10-06T02:14:13.246Z,12.38
2022-10-06T02:15:16.432Z,12.39
2022-10-06T02:16:19.847Z,12.39
2022-10-06T02:17:23.264Z,12.39
2022-10-06T02:18:27.111Z,12.40
2022-10-06T02:19:30.837Z,12.40
2022-10-06T02:20:34.552Z,12.40
2022-10-06T02:21:37.779Z,12.39
2022-10-06T02:22:43.671Z,12.38
2022-10-06T02:23:46.892Z,12.37
2022-10-06T02:24:50.129Z,12.36
2022-10-06T02:26:04.106Z,12.35
2022-10-06T02:27:08.434Z,12.34
2022-10-06T02:28:11.694Z,12.33
2022-10-06T02:29:14.815Z,12.31
2022-10-06T02:30:18.068Z,12.30
2022-10-06T02:31:22.017Z,12.29
2022-10-06T02:32:32.853Z,12.28
2022-10-06T02:33:37.057Z,12.26
2022-10-06T02:34:41.183Z,12.24
2022-10-06T02:35:45.459Z,12.23
2022-10-06T02:36:48.704Z,12.23
2022-10-06T02:37:52.164Z,12.22
2022-10-06T02:38:57.421Z,12.22
2022-10-06T02:40:00.636Z,12.21
2022-10-06T02:41:04.432Z,12.20
2022-10-06T02:42:08.226Z,12.20
2022-10-06T02:43:14.275Z,12.19
2022-10-06T02:44:18.153Z,12.18
2022-10-06T02:45:21.984Z,12.18
2022-10-06T02:46:25.786Z,12.17
2022-10-06T02:47:32.624Z,12.17
2022-10-06T02:48:35.642Z,12.17
2022-10-06T02:49:40.122Z,12.15
2022-10-06T02:50:44.739Z,12.15
2022-10-06T02:51:47.754Z,12.15
2022-10-06T02:52:50.875Z,12.16
2022-10-06T02:53:54.481Z,12.17
2022-10-06T02:54:57.506Z,12.17
2022-10-06T02:56:12.345Z,12.17
2022-10-06T02:57:16.627Z,12.15
2022-10-06T02:58:19.871Z,12.13
2022-10-06T02:59:22.813Z,12.13
2022-10-06T03:00:26.748Z,12.13
2022-10-06T03:01:30.199Z,12.13
2022-10-06T03:02:42.511Z,12.13
2022-10-06T03:03:47.289Z,12.13
2022-10-06T03:04:50.515Z,12.14
2022-10-06T03:06:21.973Z,12.15
2022-10-06T03:07:30.192Z,12.14
2022-10-06T03:08:33.840Z,12.16
2022-10-06T03:09:37.163Z,12.17
2022-10-06T03:10:40.255Z,12.19
2022-10-06T03:11:43.923Z,12.20
2022-10-06T03:12:51.049Z,12.21
2022-10-06T03:13:54.590Z,12.22
2022-10-06T03:14:57.800Z,12.24
2022-10-06T03:16:01.281Z,12.24
2022-10-06T03:17:04.385Z,12.26
2022-10-06T03:18:07.548Z,12.26
2022-10-06T03:19:11.261Z,12.27
2022-10-06T03:20:14.907Z,12.28
2022-10-06T03:21:21.296Z,12.30
2022-10-06T03:22:24.279Z,12.31
2022-10-06T03:23:29.681Z,12.32
2022-10-06T03:24:32.803Z,12.33
2022-10-06T03:25:36.507Z,12.34
2022-10-06T03:26:44.817Z,12.35
2022-10-06T03:27:48.458Z,12.36
2022-10-06T03:28:51.672Z,12.38
2022-10-06T03:29:54.717Z,12.39
2022-10-06T03:31:06.331Z,12.39
2022-10-06T03:32:09.553Z,12.39
2022-10-06T03:33:13.156Z,12.40
2022-10-06T03:34:16.744Z,12.40
2022-10-06T03:35:20.064Z,12.41
2022-10-06T03:36:26.222Z,12.42
2022-10-06T03:37:29.371Z,12.42
2022-10-06T03:38:33.624Z,12.43
2022-10-06T03:39:36.852Z,12.42
2022-10-06T03:40:39.907Z,12.43
2022-10-06T03:41:43.454Z,12.42
2022-10-06T03:42:46.900Z,12.42
2022-10-06T03:43:51.488Z,12.43
2022-10-06T03:44:54.563Z,12.44
2022-10-06T03:46:01.047Z,12.45
2022-10-06T03:47:04.622Z,12.47
2022-10-06T03:48:07.906Z,12.49
2022-10-06T03:49:10.879Z,12.51
2022-10-06T03:50:14.000Z,12.53
2022-10-06T03:51:21.621Z,12.57
2022-10-06T03:52:26.099Z,12.58
2022-10-06T03:53:30.947Z,12.60
2022-10-06T03:54:35.370Z,12.63
2022-10-06T03:55:38.393Z,12.65
2022-10-06T03:56:42.635Z,12.68
2022-10-06T03:57:46.987Z,12.72
2022-10-06T03:58:53.505Z,12.76
2022-10-06T03:59:59.888Z,12.78
2022-10-06T04:01:09.089Z,12.81
2022-10-06T04:02:12.217Z,12.84
2022-10-06T04:03:20.347Z,12.88
2022-10-06T04:04:23.430Z,12.90
2022-10-06T04:05:30.317Z,12.94
2022-10-06T04:06:36.593Z,12.95
2022-10-06T04:07:40.644Z,12.96
2022-10-06T04:08:45.266Z,12.96
2022-10-06T04:09:48.805Z,12.98
2022-10-06T04:10:54.919Z,13.00
2022-10-06T04:11:57.935Z,13.03
2022-10-06T04:13:01.041Z,13.05
2022-10-06T04:14:07.246Z,13.08
2022-10-06T04:15:11.093Z,13.10
2022-10-06T04:16:18.669Z,13.13
2022-10-06T04:17:21.759Z,13.14
2022-10-06T04:18:24.835Z,13.17
2022-10-06T04:19:28.615Z,13.20
2022-10-06T04:20:32.671Z,13.23
2022-10-06T04:21:37.697Z,13.26
2022-10-06T04:22:42.744Z,13.28
2022-10-06T04:23:45.790Z,13.31
2022-10-06T04:24:49.170Z,13.34
2022-10-06T04:25:58.777Z,13.38
2022-10-06T04:27:31.058Z,13.42
2022-10-06T04:28:48.074Z,13.49
2022-10-06T04:29:51.329Z,13.57
2022-10-06T04:30:58.877Z,13.64
2022-10-06T04:32:02.010Z,13.72
2022-10-06T04:33:11.659Z,13.79
2022-10-06T04:34:15.026Z,13.86
2022-10-06T04:35:20.568Z,13.92
2022-10-06T04:36:26.501Z,14.01
2022-10-06T04:37:30.131Z,14.08
2022-10-06T04:38:35.828Z,14.16
2022-10-06T04:39:39.373Z,14.24
2022-10-06T04:40:43.129Z,14.31
2022-10-06T04:41:47.501Z,14.38
2022-10-06T04:43:05.922Z,14.47
2022-10-06T04:44:10.477Z,14.55
2022-10-06T04:45:14.785Z,14.62
2022-10-06T04:46:42.253Z,14.70
2022-10-06T04:47:43.664Z,14.79
2022-10-06T04:48:47.523Z,14.85
2022-10-06T04:49:50.777Z,14.92
2022-10-06T04:51:02.299Z,14.98
2022-10-06T04:52:05.653Z,15.05
2022-10-06T04:53:10.427Z,15.10
2022-10-06T04:54:14.405Z,15.16
2022-10-06T04:55:17.490Z,15.21
2022-10-06T04:56:26.674Z,15.26
2022-10-06T04:57:30.054Z,15.31
2022-10-06T04:58:43.932Z,15.36
2022-10-06T05:00:10.077Z,15.41
2022-10-06T05:01:25.061Z,15.44
2022-10-06T05:02:29.230Z,15.48
2022-10-06T05:03:32.866Z,15.51
2022-10-06T05:04:35.897Z,15.56
2022-10-06T05:05:39.148Z,15.60
2022-10-06T05:06:42.926Z,15.63
2022-10-06T05:07:47.602Z,15.66
2022-10-06T05:08:53.795Z,15.68
2022-10-06T05:09:57.483Z,15.71
2022-10-06T05:11:06.959Z,15.74
2022-10-06T05:12:11.628Z,15.75
2022-10-06T05:13:16.216Z,15.77
2022-10-06T05:14:19.461Z,15.79
2022-10-06T05:15:24.843Z,15.81
2022-10-06T05:16:29.519Z,15.84
2022-10-06T05:17:32.745Z,15.84
2022-10-06T05:18:36.077Z,15.85
2022-10-06T05:19:40.095Z,15.85
2022-10-06T05:20:43.420Z,15.86
2022-10-06T05:21:46.422Z,15.87
2022-10-06T05:22:53.666Z,15.88
2022-10-06T05:23:57.544Z,15.90
2022-10-06T05:25:00.831Z,15.89
2022-10-06T05:26:05.148Z,15.92
2022-10-06T05:27:08.176Z,15.92
2022-10-06T05:28:11.370Z,15.93
2022-10-06T05:29:14.424Z,15.94
2022-10-06T05:30:18.348Z,15.95
2022-10-06T05:31:23.931Z,15.95
2022-10-06T05:32:27.628Z,15.95
2022-10-06T05:33:33.768Z,15.97
2022-10-06T05:34:37.580Z,15.98
2022-10-06T05:35:51.480Z,16.00
2022-10-06T05:36:54.884Z,16.00
2022-10-06T05:37:58.114Z,16.02
2022-10-06T05:39:02.503Z,16.06
2022-10-06T05:40:12.879Z,16.12
2022-10-06T05:41:24.888Z,16.20
2022-10-06T05:42:29.804Z,16.32
2022-10-06T05:43:34.770Z,16.41
2022-10-06T05:44:41.963Z,16.51
2022-10-06T05:45:59.392Z,16.59
2022-10-06T05:47:02.919Z,16.65
2022-10-06T05:48:06.283Z,16.69
2022-10-06T05:49:10.672Z,16.74
2022-10-06T05:50:17.135Z,16.77
2022-10-06T05:51:21.735Z,16.80
2022-10-06T05:52:24.998Z,16.81
2022-10-06T05:53:30.026Z,16.82
2022-10-06T05:54:33.059Z,16.83
2022-10-06T05:55:37.129Z,16.85
2022-10-06T05:56:40.259Z,16.86
2022-10-06T05:57:43.774Z,16.88
2022-10-06T05:58:49.389Z,16.91
2022-10-06T05:59:52.555Z,16.93
2022-10-06T06:00:55.604Z,16.95
2022-10-06T06:01:58.631Z,16.99
2022-10-06T06:03:10.659Z,17.03
2022-10-06T06:04:14.247Z,17.07
2022-10-06T06:05:26.734Z,17.12
2022-10-06T06:06:31.627Z,17.16
2022-10-06T06:07:37.305Z,17.22
2022-10-06T06:08:40.797Z,17.29
2022-10-06T06:09:43.944Z,17.42
2022-10-06T06:10:47.005Z,17.58
2022-10-06T06:11:52.801Z,17.71
2022-10-06T06:13:23.137Z,17.78
2022-10-06T06:15:00.883Z,17.79
2022-10-06T06:16:15.010Z,17.78
2022-10-06T06:17:18.229Z,17.77
2022-10-06T06:18:21.296Z,17.77
2022-10-06T06:19:28.980Z,17.75
2022-10-06T06:20:32.570Z,17.75
2022-10-06T06:21:37.536Z,17.74
2022-10-06T06:22:40.963Z,17.75
2022-10-06T06:23:47.035Z,17.74
2022-10-06T06:24:50.996Z,17.73
2022-10-06T06:26:17.683Z,17.71
2022-10-06T06:27:23.444Z,17.71
2022-10-06T06:28:29.768Z,17.71
2022-10-06T06:29:33.210Z,17.72
2022-10-06T06:30:36.329Z,17.72
2022-10-06T06:31:43.814Z,17.72
2022-10-06T06:32:47.279Z,17.71
2022-10-06T06:33:56.533Z,17.71
2022-10-06T06:35:02.142Z,17.69
2022-10-06T06:36:22.219Z,17.68
2022-10-06T06:37:26.389Z,17.70
2022-10-06T06:38:32.315Z,17.73
2022-10-06T06:39:36.209Z,17.78
2022-10-06T06:40:41.999Z,17.84
2022-10-06T06:41:47.203Z,17.87
2022-10-06T06:43:26.294Z,17.89
2022-10-06T06:44:46.078Z,17.90
2022-10-06T06:46:26.917Z,17.92
2022-10-06T06:47:36.668Z,17.95
2022-10-06T06:48:42.114Z,17.98
2022-10-06T06:49:45.170Z,18.01
2022-10-06T06:50:58.552Z,18.04
2022-10-06T06:52:04.710Z,18.08
2022-10-06T06:53:15.489Z,18.14
2022-10-06T06:54:20.343Z,18.21
2022-10-06T06:55:27.499Z,18.26
2022-10-06T06:56:38.907Z,18.28
2022-10-06T06:57:46.610Z,18.31
2022-10-06T06:58:50.396Z,18.35
2022-10-06T06:59:53.635Z,18.44
2022-10-06T07:01:20.919Z,18.53
2022-10-06T07:02:29.595Z,18.61
2022-10-06T07:03:56.075Z,18.63
2022-10-06T07:04:57.477Z,18.61
2022-10-06T07:06:09.507Z,18.60
2022-10-06T07:07:13.176Z,18.63
2022-10-06T07:08:21.053Z,18.66
2022-10-06T07:09:27.604Z,18.67
2022-10-06T07:10:49.730Z,18.68
2022-10-06T07:11:55.086Z,18.69
2022-10-06T07:12:59.175Z,18.71
2022-10-06T07:14:07.803Z,18.73
2022-10-06T07:15:29.643Z,18.74
2022-10-06T07:16:52.471Z,18.76
2022-10-06T07:18:14.360Z,18.78
2022-10-06T07:19:37.744Z,18.79
2022-10-06T07:20:59.468Z,18.79
2022-10-06T07:22:28.435Z,18.82
2022-10-06T07:23:52.285Z,18.93
2022-10-06T07:25:08.078Z,19.08
2022-10-06T07:26:13.764Z,19.21
2022-10-06T07:27:16.954Z,19.28
2022-10-06T07:28:20.129Z,19.32
2022-10-06T07:29:23.324Z,19.36
2022-10-06T07:30:28.903Z,19.39
2022-10-06T07:31:36.957Z,19.40
2022-10-06T07:32:40.914Z,19.36
2022-10-06T07:33:44.674Z,19.36
2022-10-06T07:34:49.318Z,19.34
2022-10-06T07:35:52.309Z,19.31
2022-10-06T07:37:04.010Z,19.28
2022-10-06T07:38:10.143Z,19.24
2022-10-06T07:39:17.153Z,19.20
2022-10-06T07:40:20.622Z,19.17
2022-10-06T07:41:24.192Z,19.13
2022-10-06T07:42:47.881Z,19.09
2022-10-06T07:43:54.366Z,19.04
2022-10-06T07:45:16.856Z,19.01
2022-10-06T07:46:20.465Z,18.96
2022-10-06T07:47:32.959Z,18.92
2022-10-06T07:48:37.201Z,18.90
2022-10-06T07:49:42.432Z,18.86
2022-10-06T07:50:48.137Z,18.84
2022-10-06T07:51:54.081Z,18.84
2022-10-06T07:52:58.044Z,18.86
2022-10-06T07:54:02.431Z,18.89
2022-10-06T07:55:40.011Z,18.93
2022-10-06T07:56:53.987Z,18.94
2022-10-06T07:57:57.154Z,18.94
2022-10-06T07:59:00.401Z,18.94
2022-10-06T08:00:07.486Z,18.97
2022-10-06T08:01:18.172Z,18.99
2022-10-06T08:02:23.387Z,19.01
2022-10-06T08:03:26.693Z,19.06
2022-10-06T08:04:29.782Z,19.08
2022-10-06T08:05:32.839Z,19.12
2022-10-06T08:06:36.299Z,19.15
2022-10-06T08:07:39.372Z,19.18
2022-10-06T08:08:50.243Z,19.20
2022-10-06T08:09:55.828Z,19.19
2022-10-06T08:11:01.648Z,19.15
2022-10-06T08:12:24.860Z,19.10
2022-10-06T08:13:27.900Z,19.08
2022-10-06T08:14:31.122Z,19.08
2022-10-06T08:15:34.950Z,19.11
2022-10-06T08:16:37.944Z,19.13
2022-10-06T08:17:42.012Z,19.13
2022-10-06T08:18:50.458Z,19.03
2022-10-06T08:19:54.395Z,18.88
2022-10-06T08:20:58.424Z,18.74
2022-10-06T08:22:04.849Z,18.62
2022-10-06T08:23:12.156Z,18.52
2022-10-06T08:24:15.201Z,18.42
2022-10-06T08:25:18.379Z,18.33
2022-10-06T08:26:23.007Z,18.27
2022-10-06T08:27:28.732Z,18.22
2022-10-06T08:28:32.518Z,18.17
2022-10-06T08:29:35.937Z,18.14
2022-10-06T08:30:39.888Z,18.10
2022-10-06T08:31:43.299Z,18.06
2022-10-06T08:32:47.633Z,18.00
2022-10-06T08:33:55.102Z,17.98
2022-10-06T08:34:58.665Z,17.94
2022-10-06T08:36:04.713Z,17.93
2022-10-06T08:37:19.879Z,17.92
2022-10-06T08:38:23.486Z,17.90
2022-10-06T08:39:26.460Z,17.89
2022-10-06T08:40:29.808Z,17.87
2022-10-06T08:41:32.904Z,17.85
2022-10-06T08:42:41.474Z,17.84
2022-10-06T08:43:52.201Z,17.82
2022-10-06T08:45:02.893Z,17.81
2022-10-06T08:46:07.578Z,17.82
2022-10-06T08:47:18.747Z,17.81
2022-10-06T08:48:28.833Z,17.82
2022-10-06T08:49:38.993Z,17.82
2022-10-06T08:51:03.495Z,17.82
2022-10-06T08:52:06.567Z,17.80
2022-10-06T08:53:36.945Z,17.77
2022-10-06T08:55:08.949Z,17.71
2022-10-06T08:56:20.568Z,17.66
2022-10-06T08:57:49.593Z,17.65
2022-10-06T08:59:04.289Z,17.62
2022-10-06T09:00:21.183Z,17.60
2022-10-06T09:01:29.463Z,17.61
2022-10-06T09:02:41.871Z,17.63
2022-10-06T09:03:48.943Z,17.66
2022-10-06T09:04:52.485Z,17.67
2022-10-06T09:06:36.220Z,17.69
2022-10-06T09:08:19.162Z,17.70
2022-10-06T09:09:29.847Z,17.72
2022-10-06T09:10:49.359Z,17.72
2022-10-06T09:12:17.507Z,17.70
2022-10-06T09:13:35.458Z,17.66
2022-10-06T09:15:09.428Z,17.63
2022-10-06T09:16:20.772Z,17.60
2022-10-06T09:17:35.381Z,17.53
2022-10-06T09:20:20.870Z,17.49
2022-10-06T09:21:42.515Z,17.48
2022-10-06T09:22:49.038Z,17.48
2022-10-06T09:24:02.444Z,17.47
2022-10-06T09:25:21.983Z,17.47
2022-10-06T09:26:31.371Z,17.48
2022-10-06T09:27:36.649Z,17.51
2022-10-06T09:28:40.090Z,17.52
2022-10-06T09:29:43.337Z,17.52
2022-10-06T09:30:46.429Z,17.52
2022-10-06T09:31:51.037Z,17.52
2022-10-06T09:33:00.177Z,17.52
2022-10-06T09:34:25.109Z,17.50
2022-10-06T09:35:30.851Z,17.49
2022-10-06T09:37:02.049Z,17.48
2022-10-06T09:38:09.018Z,17.49
2022-10-06T09:39:27.117Z,17.49
2022-10-06T09:40:37.459Z,17.45
2022-10-06T09:41:45.575Z,17.42
2022-10-06T09:42:49.412Z,17.41
2022-10-06T09:43:58.014Z,17.40
2022-10-06T09:45:02.440Z,17.39
2022-10-06T09:46:27.634Z,17.36
2022-10-06T09:47:33.372Z,17.34
2022-10-06T09:48:36.459Z,17.32
2022-10-06T09:49:40.004Z,17.34
2022-10-06T09:50:43.115Z,17.37
2022-10-06T09:52:01.406Z,17.41
2022-10-06T09:53:16.343Z,17.48
2022-10-06T09:54:19.731Z,17.55
2022-10-06T09:55:23.287Z,17.61
2022-10-06T09:56:27.345Z,17.66
2022-10-06T09:57:32.057Z,17.73
2022-10-06T09:58:38.069Z,17.80
2022-10-06T09:59:44.444Z,17.85
2022-10-06T10:00:53.818Z,17.92
2022-10-06T10:01:59.844Z,17.97
2022-10-06T10:03:09.245Z,18.04
2022-10-06T10:04:24.692Z,18.10
2022-10-06T10:05:30.544Z,18.15
2022-10-06T10:06:37.744Z,18.19
2022-10-06T10:07:40.840Z,18.21
2022-10-06T10:08:43.790Z,18.20
2022-10-06T10:09:47.006Z,18.19
2022-10-06T10:11:30.457Z,18.15
2022-10-06T10:12:34.081Z,18.09
2022-10-06T10:13:43.959Z,18.05
2022-10-06T10:14:47.553Z,18.02
2022-10-06T10:16:00.124Z,17.98
2022-10-06T10:17:20.608Z,17.94
2022-10-06T10:18:28.181Z,17.90
2022-10-06T10:19:42.876Z,17.87
2022-10-06T10:21:08.660Z,17.84
2022-10-06T10:22:33.536Z,17.84
2022-10-06T10:23:43.382Z,17.86
2022-10-06T10:25:04.623Z,17.87
2022-10-06T10:26:08.255Z,17.89
2022-10-06T10:27:23.117Z,17.90
2022-10-06T10:28:44.633Z,17.92
2022-10-06T10:30:07.974Z,17.96
2022-10-06T10:31:39.000Z,18.01
2022-10-06T10:33:11.330Z,18.07
2022-10-06T10:34:33.680Z,18.15
2022-10-06T10:35:51.193Z,18.24
2022-10-06T10:36:57.675Z,18.34
2022-10-06T10:38:15.703Z,18.42
2022-10-06T10:39:33.709Z,18.50
2022-10-06T10:40:45.596Z,18.55
2022-10-06T10:41:52.777Z,18.59
2022-10-06T10:43:19.639Z,18.62
2022-10-06T10:44:47.632Z,18.67
2022-10-06T10:45:57.480Z,18.74
2022-10-06T10:47:41.879Z,18.78
2022-10-06T10:49:19.449Z,18.80
2022-10-06T10:50:49.558Z,18.80
2022-10-06T10:52:17.718Z,18.75
2022-10-06T10:53:42.508Z,18.69
2022-10-06T10:54:58.679Z,18.62
2022-10-06T10:56:03.842Z,18.54
2022-10-06T10:57:14.589Z,18.46
2022-10-06T10:58:50.769Z,18.37
2022-10-06T11:00:01.099Z,18.26
2022-10-06T11:01:48.275Z,18.18
2022-10-06T11:02:55.063Z,18.06
2022-10-06T11:04:01.031Z,18.00
2022-10-06T11:05:25.323Z,17.93
2022-10-06T11:06:40.009Z,17.88
2022-10-06T11:08:11.192Z,17.86
2022-10-06T11:09:19.158Z,17.85
2022-10-06T11:10:27.830Z,17.83
2022-10-06T11:11:37.927Z,17.79
2022-10-06T11:12:59.428Z,17.78
2022-10-06T11:14:08.059Z,17.82
2022-10-06T11:15:44.729Z,17.89
2022-10-06T11:17:15.975Z,18.00
2022-10-06T11:19:01.158Z,18.12
2022-10-06T11:20:12.044Z,18.33
2022-10-06T11:21:26.539Z,18.62
2022-10-06T11:22:47.222Z,18.95
2022-10-06T11:24:15.793Z,19.31
2022-10-06T11:25:37.536Z,19.72
2022-10-06T11:27:02.625Z,20.04
2022-10-06T11:28:26.923Z,20.27
2022-10-06T11:29:48.368Z,20.45
2022-10-06T11:31:22.619Z,20.56
2022-10-06T11:32:44.734Z,20.71
2022-10-06T11:33:54.348Z,20.80
2022-10-06T11:34:57.488Z,20.89
2022-10-06T11:36:03.257Z,21.02
2022-10-06T11:37:35.059Z,21.15
2022-10-06T11:38:52.638Z,21.34
2022-10-06T11:40:02.368Z,21.45
2022-10-06T11:41:31.578Z,21.52
2022-10-06T11:42:43.993Z,21.55
2022-10-06T11:44:00.469Z,21.50
2022-10-06T11:45:13.912Z,21.47
2022-10-06T11:46:31.814Z,21.40
2022-10-06T11:47:45.128Z,21.31
2022-10-06T11:48:48.178Z,21.25
2022-10-06T11:49:53.431Z,21.23
2022-10-06T11:51:17.511Z,21.23
2022-10-06T11:52:20.485Z,21.23
2022-10-06T11:53:34.557Z,21.18
2022-10-06T11:54:40.606Z,21.13
2022-10-06T11:55:43.718Z,21.13
2022-10-06T11:56:46.827Z,21.17
2022-10-06T11:58:41.938Z,21.19
2022-10-06T11:59:34.191Z,21.12
2022-10-06T12:00:37.189Z,21.13
2022-10-06T12:01:40.444Z,21.14
2022-10-06T12:02:46.254Z,21.09
2022-10-06T12:04:09.381Z,21.02
2022-10-06T12:06:47.652Z,20.95
2022-10-06T12:07:59.446Z,21.11
2022-10-06T12:09:02.636Z,21.26
2022-10-06T12:10:35.262Z,21.39
2022-10-06T12:11:41.440Z,21.61
2022-10-06T12:13:05.816Z,21.62
2022-10-06T12:16:00.095Z,21.55
2022-10-06T12:17:29.361Z,21.37
2022-10-06T12:18:38.304Z,21.46
2022-10-06T12:20:06.332Z,21.59
2022-10-06T12:21:37.430Z,21.69
2022-10-06T12:22:49.612Z,21.85
2022-10-06T12:24:05.217Z,21.97
2022-10-06T12:25:15.940Z,21.99
2022-10-06T12:26:43.183Z,21.94
2022-10-06T12:28:17.225Z,21.96
2022-10-06T12:29:50.891Z,22.05
2022-10-06T12:31:17.939Z,22.20
2022-10-06T12:32:39.585Z,22.37
2022-10-06T12:33:43.367Z,22.55
2022-10-06T12:34:58.209Z,22.72
2022-10-06T12:36:03.752Z,22.87
2022-10-06T12:37:31.599Z,22.99
2022-10-06T12:38:35.045Z,23.22
2022-10-06T12:39:38.064Z,23.38
2022-10-06T12:40:54.769Z,23.52
2022-10-06T12:42:18.443Z,23.64
2022-10-06T12:43:24.456Z,23.77
2022-10-06T12:44:37.511Z,23.84
2022-10-06T12:45:56.378Z,23.91
2022-10-06T12:47:04.118Z,23.98
2022-10-06T12:48:15.140Z,24.06
2022-10-06T12:49:47.308Z,24.15
2022-10-06T12:50:58.329Z,24.27
2022-10-06T12:52:57.327Z,24.39
2022-10-06T12:54:10.201Z,24.48
2022-10-06T12:55:28.723Z,24.51
2022-10-06T12:56:34.526Z,24.55
2022-10-06T12:57:46.854Z,24.60
2022-10-06T12:58:49.850Z,24.66
2022-10-06T12:59:53.030Z,24.71
2022-10-06T13:01:01.711Z,24.79
2022-10-06T13:02:09.788Z,24.91
2022-10-06T13:03:24.780Z,25.04
2022-10-06T13:04:45.032Z,25.18
2022-10-06T13:05:50.852Z,25.34
2022-10-06T13:06:54.164Z,25.47
2022-10-06T13:08:03.457Z,25.58
2022-10-06T13:09:14.036Z,25.66
2022-10-06T13:10:20.196Z,25.77
2022-10-06T13:11:27.136Z,25.83
2022-10-06T13:12:37.894Z,25.89
2022-10-06T13:13:52.854Z,25.88
2022-10-06T13:15:16.417Z,25.85
2022-10-06T13:16:23.381Z,25.82
2022-10-06T13:17:26.395Z,25.89
2022-10-06T13:18:32.127Z,25.95
2022-10-06T13:19:35.915Z,26.00
2022-10-06T13:20:50.345Z,26.09
2022-10-06T13:21:53.802Z,26.20
2022-10-06T13:22:59.464Z,26.26
2022-10-06T13:24:03.535Z,26.37
2022-10-06T13:25:12.895Z,26.45
2022-10-06T13:26:23.419Z,26.56
2022-10-06T13:27:26.516Z,26.67
2022-10-06T13:28:35.876Z,26.76
2022-10-06T13:29:38.989Z,26.81
2022-10-06T13:30:42.359Z,26.88
2022-10-06T13:31:51.878Z,26.91
2022-10-06T13:32:58.093Z,27.01
2022-10-06T13:34:03.934Z,27.11
2022-10-06T13:35:12.682Z,27.25
2022-10-06T13:36:17.083Z,27.33
2022-10-06T13:37:20.396Z,27.37
2022-10-06T13:38:23.523Z,27.43
2022-10-06T13:39:31.856Z,27.40
2022-10-06T13:40:50.583Z,27.42
2022-10-06T13:41:56.286Z,27.40
2022-10-06T13:43:02.901Z,27.34
2022-10-06T13:44:11.867Z,27.27
2022-10-06T13:45:16.239Z,27.18
2022-10-06T13:46:23.966Z,27.13
2022-10-06T13:47:30.069Z,27.13
2022-10-06T13:48:34.461Z,27.10
2022-10-06T13:50:01.983Z,27.04
2022-10-06T13:51:05.783Z,26.80
2022-10-06T13:52:19.100Z,26.66
2022-10-06T13:53:33.036Z,26.51
2022-10-06T13:54:52.235Z,26.39
2022-10-06T13:55:56.016Z,26.21
2022-10-06T13:56:59.274Z,26.12
2022-10-06T13:58:05.233Z,26.08
2022-10-06T13:59:28.470Z,26.05
2022-10-06T14:00:31.728Z,26.00
2022-10-06T14:01:35.097Z,25.92
2022-10-06T14:02:38.457Z,25.87
2022-10-06T14:03:41.664Z,25.78
2022-10-06T14:04:45.705Z,25.70
2022-10-06T14:05:49.912Z,25.65
2022-10-06T14:07:00.721Z,25.58
2022-10-06T14:08:09.585Z,25.47
2022-10-06T14:09:15.682Z,25.35
2022-10-06T14:10:23.284Z,25.18
2022-10-06T14:11:29.680Z,24.99
2022-10-06T14:12:33.581Z,24.76
2022-10-06T14:13:55.244Z,24.52
2022-10-06T14:14:59.069Z,24.18
2022-10-06T14:16:06.518Z,23.92
2022-10-06T14:17:22.779Z,23.62
2022-10-06T14:18:43.157Z,23.24
2022-10-06T14:19:46.710Z,22.86
2022-10-06T14:20:53.738Z,22.59
2022-10-06T14:21:56.900Z,22.29
2022-10-06T14:23:00.156Z,22.00
2022-10-06T14:24:22.074Z,21.75
2022-10-06T14:25:25.327Z,21.46
2022-10-06T14:26:31.374Z,21.24
2022-10-06T14:27:34.596Z,21.02
2022-10-06T14:28:39.425Z,20.82
2022-10-06T14:29:42.522Z,20.59
2022-10-06T14:30:46.448Z,20.35
2022-10-06T14:31:49.987Z,20.15
2022-10-06T14:32:53.147Z,19.98
2022-10-06T14:33:57.168Z,19.82
2022-10-06T14:35:02.524Z,19.62
2022-10-06T14:36:05.822Z,19.43
2022-10-06T14:37:16.281Z,19.24
2022-10-06T14:38:20.575Z,19.05
2022-10-06T14:39:23.718Z,18.89
2022-10-06T14:40:26.994Z,18.74
2022-10-06T14:41:30.697Z,18.61
2022-10-06T14:42:33.816Z,18.47
2022-10-06T14:43:36.999Z,18.33
2022-10-06T14:44:40.307Z,18.22
2022-10-06T14:45:44.578Z,18.13
2022-10-06T14:46:49.013Z,18.03
2022-10-06T14:47:52.509Z,17.94
2022-10-06T14:48:56.129Z,17.87
2022-10-06T14:49:59.476Z,17.80
2022-10-06T14:51:04.235Z,17.73
2022-10-06T14:52:10.521Z,17.65
2022-10-06T14:53:17.063Z,17.57
2022-10-06T14:54:20.208Z,17.52